createdAt,value
2022-10-31T00:00:21.589Z,13.24
2022-10-31T00:01:21.531Z,13.25
2022-10-31T00:02:21.532Z,13.22
2022-10-31T00:03:21.511Z,13.19
2022-10-31T00:04:21.482Z,13.19
2022-10-31T00:05:21.473Z,13.17
2022-10-31T00:06:21.462Z,13.14
2022-10-31T00:07:21.455Z,13.14
2022-10-31T00:08:21.434Z,13.12
2022-10-31T00:09:21.435Z,13.10
2022-10-31T00:10:21.415Z,13.09
2022-10-31T00:11:21.420Z,13.07
2022-10-31T00:12:21.404Z,13.04
2022-10-31T00:14:21.386Z,13.04
2022-10-31T00:15:21.363Z,13.03
2022-10-31T00:16:21.369Z,13.03
2022-10-31T00:17:21.355Z,13.03
2022-10-31T00:18:21.348Z,13.03
2022-10-31T00:19:21.324Z,13.01
2022-10-31T00:20:21.304Z,13.01
2022-10-31T00:21:21.302Z,13.03
2022-10-31T00:22:21.291Z,13.03
2022-10-31T00:23:21.289Z,13.01
2022-10-31T00:24:21.269Z,12.99
2022-10-31T00:25:21.246Z,12.99
2022-10-31T00:26:21.248Z,12.98
2022-10-31T00:27:21.232Z,12.99
2022-10-31T00:28:21.208Z,12.96
2022-10-31T00:29:21.237Z,12.95
2022-10-31T00:30:21.189Z,12.94
2022-10-31T00:31:21.206Z,12.94
2022-10-31T00:32:21.181Z,12.92
2022-10-31T00:33:21.177Z,12.94
2022-10-31T00:34:21.150Z,12.92
2022-10-31T00:35:21.139Z,12.92
2022-10-31T00:36:21.138Z,12.92
2022-10-31T00:37:21.141Z,12.89
2022-10-31T00:38:21.100Z,12.89
2022-10-31T00:39:21.108Z,12.87
2022-10-31T00:40:21.089Z,12.87
2022-10-31T00:41:21.096Z,12.85
2022-10-31T00:42:21.071Z,12.84
2022-10-31T00:43:21.063Z,12.81
2022-10-31T00:44:21.043Z,12.84
2022-10-31T00:45:21.034Z,12.84
2022-10-31T00:46:21.047Z,12.87
2022-10-31T00:47:21.009Z,12.87
2022-10-31T00:48:21.019Z,12.84
2022-10-31T00:49:20.998Z,12.80
2022-10-31T00:50:20.980Z,12.80
2022-10-31T00:51:20.970Z,12.80
2022-10-31T00:52:20.961Z,12.76
2022-10-31T00:53:20.971Z,12.74
2022-10-31T00:54:20.941Z,12.73
2022-10-31T00:55:20.934Z,12.74
2022-10-31T00:56:20.910Z,12.76
2022-10-31T00:57:20.899Z,12.73
2022-10-31T00:58:20.882Z,12.79
2022-10-31T00:59:20.892Z,12.79
2022-10-31T01:00:20.862Z,12.79
2022-10-31T01:01:20.987Z,12.79
2022-10-31T01:02:21.065Z,12.80
2022-10-31T01:03:20.843Z,12.77
2022-10-31T01:04:20.821Z,12.77
2022-10-31T01:05:20.825Z,12.77
2022-10-31T01:06:20.801Z,12.76
2022-10-31T01:07:20.792Z,12.76
2022-10-31T01:08:20.783Z,12.76
2022-10-31T01:09:20.775Z,12.76
2022-10-31T01:10:20.764Z,12.74
2022-10-31T01:11:20.769Z,12.73
2022-10-31T01:12:20.746Z,12.70
2022-10-31T01:14:20.724Z,12.69
2022-10-31T01:15:20.733Z,12.70
2022-10-31T01:16:20.715Z,12.69
2022-10-31T01:17:20.703Z,12.70
2022-10-31T01:18:20.665Z,12.67
2022-10-31T01:19:20.697Z,12.70
2022-10-31T01:20:20.666Z,12.73
2022-10-31T01:21:20.654Z,12.71
2022-10-31T01:22:20.637Z,12.73
2022-10-31T01:23:20.626Z,12.71
2022-10-31T01:24:20.615Z,12.71
2022-10-31T01:25:20.607Z,12.70
2022-10-31T01:26:20.589Z,12.70
2022-10-31T01:27:20.587Z,12.71
2022-10-31T01:28:20.591Z,12.71
2022-10-31T01:29:20.589Z,12.70
2022-10-31T01:30:20.560Z,12.73
2022-10-31T01:31:20.537Z,12.73
2022-10-31T01:32:20.525Z,12.71
2022-10-31T01:33:20.509Z,12.74
2022-10-31T01:34:20.527Z,12.73
2022-10-31T01:35:20.498Z,12.73
2022-10-31T01:36:20.482Z,12.74
2022-10-31T01:37:20.487Z,12.71
2022-10-31T01:38:20.470Z,12.71
2022-10-31T01:39:20.468Z,12.74
2022-10-31T01:40:20.450Z,12.73
2022-10-31T01:41:20.438Z,12.73
2022-10-31T01:42:20.430Z,12.73
2022-10-31T01:44:20.405Z,12.74
2022-10-31T01:45:20.403Z,12.74
2022-10-31T01:46:20.362Z,12.76
2022-10-31T01:47:20.374Z,12.74
2022-10-31T01:48:20.379Z,12.76
2022-10-31T01:49:20.351Z,12.76
2022-10-31T01:50:20.321Z,12.76
2022-10-31T01:51:20.311Z,12.76
2022-10-31T01:52:20.332Z,12.77
2022-10-31T01:53:24.380Z,12.79
2022-10-31T01:54:21.282Z,12.76
2022-10-31T01:55:21.987Z,12.74
2022-10-31T01:56:20.272Z,12.74
2022-10-31T01:57:20.282Z,12.73
2022-10-31T01:58:20.274Z,12.74
2022-10-31T01:59:20.233Z,12.73
2022-10-31T02:00:20.234Z,12.71
2022-10-31T02:01:20.343Z,12.71
2022-10-31T02:02:20.361Z,12.73
2022-10-31T02:03:20.198Z,12.73
2022-10-31T02:04:20.176Z,12.74
2022-10-31T02:05:20.154Z,12.73
2022-10-31T02:06:20.163Z,12.73
2022-10-31T02:07:20.173Z,12.73
2022-10-31T02:08:20.130Z,12.73
2022-10-31T02:09:20.122Z,12.71
2022-10-31T02:10:20.113Z,12.71
2022-10-31T02:11:20.115Z,12.70
2022-10-31T02:12:20.095Z,12.70
2022-10-31T02:13:20.128Z,12.67
2022-10-31T02:14:20.074Z,12.67
2022-10-31T02:15:20.055Z,12.63
2022-10-31T02:16:20.043Z,12.63
2022-10-31T02:17:20.056Z,12.63
2022-10-31T02:18:20.016Z,12.61
2022-10-31T02:19:20.026Z,12.61
2022-10-31T02:20:20.017Z,12.61
2022-10-31T02:21:20.025Z,12.61
2022-10-31T02:22:20.006Z,12.59
2022-10-31T02:23:19.966Z,12.59
2022-10-31T02:24:19.967Z,12.58
2022-10-31T02:25:19.967Z,12.58
2022-10-31T02:26:19.938Z,12.55
2022-10-31T02:27:19.927Z,12.54
2022-10-31T02:28:19.988Z,12.54
2022-10-31T02:29:19.900Z,12.52
2022-10-31T02:30:19.890Z,12.51
2022-10-31T02:31:19.898Z,12.51
2022-10-31T02:32:19.867Z,12.51
2022-10-31T02:33:19.878Z,12.49
2022-10-31T02:34:19.859Z,12.49
2022-10-31T02:35:19.851Z,12.49
2022-10-31T02:36:19.829Z,12.49
2022-10-31T02:37:19.851Z,12.46
2022-10-31T02:38:19.811Z,12.44
2022-10-31T02:39:19.801Z,12.43
2022-10-31T02:40:19.797Z,12.43
2022-10-31T02:41:19.780Z,12.40
2022-10-31T02:42:19.780Z,12.40
2022-10-31T02:43:19.775Z,12.40
2022-10-31T02:44:19.741Z,12.38
2022-10-31T02:45:19.759Z,12.38
2022-10-31T02:46:19.728Z,12.38
2022-10-31T02:47:19.753Z,12.38
2022-10-31T02:48:19.721Z,12.40
2022-10-31T02:49:19.688Z,12.40
2022-10-31T02:50:19.671Z,12.40
2022-10-31T02:51:19.672Z,12.38
2022-10-31T02:52:19.662Z,12.37
2022-10-31T02:53:19.642Z,12.36
2022-10-31T02:54:19.644Z,12.36
2022-10-31T02:55:19.624Z,12.34
2022-10-31T02:56:19.612Z,12.34
2022-10-31T02:57:19.604Z,12.33
2022-10-31T02:59:19.601Z,12.31
2022-10-31T03:00:19.585Z,12.30
2022-10-31T03:01:19.717Z,12.29
2022-10-31T03:02:19.615Z,12.26
2022-10-31T03:03:19.543Z,12.23
2022-10-31T03:04:19.563Z,12.23
2022-10-31T03:05:19.534Z,12.23
2022-10-31T03:06:19.504Z,12.25
2022-10-31T03:07:19.537Z,12.26
2022-10-31T03:08:19.495Z,12.23
2022-10-31T03:09:19.485Z,12.23
2022-10-31T03:10:19.478Z,12.23
2022-10-31T03:11:19.466Z,12.21
2022-10-31T03:12:19.448Z,12.19
2022-10-31T03:13:19.539Z,12.19
2022-10-31T03:14:19.416Z,12.18
2022-10-31T03:15:19.432Z,12.19
2022-10-31T03:16:19.416Z,12.18
2022-10-31T03:17:19.397Z,12.18
2022-10-31T03:18:19.376Z,12.16
2022-10-31T03:19:19.376Z,12.16
2022-10-31T03:20:19.365Z,12.18
2022-10-31T03:21:19.377Z,12.16
2022-10-31T03:22:19.356Z,12.16
2022-10-31T03:23:19.340Z,12.13
2022-10-31T03:24:19.362Z,12.15
2022-10-31T03:25:19.294Z,12.15
2022-10-31T03:26:19.308Z,12.13
2022-10-31T03:27:19.308Z,12.12
2022-10-31T03:29:19.268Z,12.11
2022-10-31T03:30:19.259Z,12.12
2022-10-31T03:31:19.251Z,12.12
2022-10-31T03:32:19.233Z,12.11
2022-10-31T03:33:19.231Z,12.11
2022-10-31T03:34:19.230Z,12.11
2022-10-31T03:35:19.201Z,12.11
2022-10-31T03:36:19.187Z,12.08
2022-10-31T03:37:19.191Z,12.08
2022-10-31T03:38:19.150Z,12.07
2022-10-31T03:39:19.311Z,12.07
2022-10-31T03:40:19.150Z,12.05
2022-10-31T03:41:19.148Z,12.07
2022-10-31T03:42:19.114Z,12.12
2022-10-31T03:43:19.146Z,12.12
2022-10-31T03:44:19.105Z,12.11
2022-10-31T03:45:19.111Z,12.08
2022-10-31T03:46:19.078Z,12.11
2022-10-31T03:47:19.062Z,12.07
2022-10-31T03:48:19.052Z,12.07
2022-10-31T03:49:19.052Z,12.08
2022-10-31T03:50:19.071Z,12.07
2022-10-31T03:51:19.022Z,12.07
2022-10-31T03:52:19.023Z,12.07
2022-10-31T03:53:19.006Z,12.05
2022-10-31T03:54:18.984Z,12.04
2022-10-31T03:55:18.983Z,12.00
2022-10-31T03:56:18.992Z,12.00
2022-10-31T03:57:18.959Z,12.00
2022-10-31T03:59:18.933Z,11.98
2022-10-31T04:00:18.983Z,11.98
2022-10-31T04:01:19.047Z,11.96
2022-10-31T04:02:19.122Z,11.96
2022-10-31T04:03:18.914Z,11.96
2022-10-31T04:04:18.885Z,11.96
2022-10-31T04:05:18.883Z,11.97
2022-10-31T04:06:18.875Z,11.96
2022-10-31T04:07:18.867Z,11.96
2022-10-31T04:08:18.854Z,11.97
2022-10-31T04:09:18.846Z,11.94
2022-10-31T04:10:18.818Z,11.93
2022-10-31T04:11:18.805Z,11.93
2022-10-31T04:12:18.807Z,11.93
2022-10-31T04:14:18.773Z,11.90
2022-10-31T04:15:18.785Z,11.90
2022-10-31T04:16:18.747Z,11.87
2022-10-31T04:17:18.763Z,11.85
2022-10-31T04:18:18.757Z,11.84
2022-10-31T04:19:18.737Z,11.84
2022-10-31T04:20:18.707Z,11.82
2022-10-31T04:21:18.707Z,11.82
2022-10-31T04:22:18.698Z,11.84
2022-10-31T04:23:18.696Z,11.82
2022-10-31T04:24:18.679Z,11.82
2022-10-31T04:25:18.672Z,11.79
2022-10-31T04:26:18.678Z,11.79
2022-10-31T04:27:18.642Z,11.81
2022-10-31T04:29:18.629Z,11.75
2022-10-31T04:30:18.620Z,11.74
2022-10-31T04:31:18.598Z,11.74
2022-10-31T04:32:18.616Z,11.72
2022-10-31T04:33:18.600Z,11.72
2022-10-31T04:34:18.551Z,11.70
2022-10-31T04:35:18.570Z,11.69
2022-10-31T04:36:18.548Z,11.69
2022-10-31T04:37:18.540Z,11.69
2022-10-31T04:38:18.530Z,11.67
2022-10-31T04:39:22.668Z,11.67
2022-10-31T04:40:19.520Z,11.64
2022-10-31T04:41:18.502Z,11.64
2022-10-31T04:42:18.494Z,11.64
2022-10-31T04:43:21.485Z,11.64
2022-10-31T04:44:18.451Z,11.63
2022-10-31T04:45:21.121Z,11.62
2022-10-31T04:46:18.478Z,11.60
2022-10-31T04:47:18.422Z,11.60
2022-10-31T04:48:18.414Z,11.59
2022-10-31T04:49:18.421Z,11.57
2022-10-31T04:50:18.410Z,11.57
2022-10-31T04:51:18.381Z,11.56
2022-10-31T04:52:18.365Z,11.56
2022-10-31T04:53:19.076Z,11.54
2022-10-31T04:54:19.073Z,11.51
2022-10-31T04:55:18.384Z,11.51
2022-10-31T04:56:18.333Z,11.49
2022-10-31T04:57:18.314Z,11.48
2022-10-31T04:58:18.339Z,11.49
2022-10-31T04:59:18.313Z,11.48
2022-10-31T05:00:18.305Z,11.46
2022-10-31T05:01:18.408Z,11.46
2022-10-31T05:02:18.328Z,11.45
2022-10-31T05:03:18.342Z,11.45
2022-10-31T05:04:18.254Z,11.45
2022-10-31T05:05:19.317Z,11.42
2022-10-31T05:06:18.225Z,11.42
2022-10-31T05:07:19.225Z,11.41
2022-10-31T05:08:18.233Z,11.41
2022-10-31T05:09:19.715Z,11.41
2022-10-31T05:10:18.199Z,11.39
2022-10-31T05:11:18.560Z,11.38
2022-10-31T05:12:18.167Z,11.38
2022-10-31T05:13:18.951Z,11.38
2022-10-31T05:14:18.135Z,11.36
2022-10-31T05:15:19.008Z,11.35
2022-10-31T05:16:18.114Z,11.35
2022-10-31T05:17:18.148Z,11.35
2022-10-31T05:18:18.107Z,11.33
2022-10-31T05:19:18.338Z,11.33
2022-10-31T05:20:18.109Z,11.35
2022-10-31T05:21:18.111Z,11.33
2022-10-31T05:22:18.047Z,11.33
2022-10-31T05:23:18.058Z,11.31
2022-10-31T05:24:18.060Z,11.33
2022-10-31T05:25:18.029Z,11.33
2022-10-31T05:26:17.999Z,11.31
2022-10-31T05:27:18.004Z,11.31
2022-10-31T05:28:17.976Z,11.28
2022-10-31T05:29:17.989Z,11.28
2022-10-31T05:30:17.985Z,11.28
2022-10-31T05:31:17.958Z,11.30
2022-10-31T05:32:17.969Z,11.31
2022-10-31T05:33:17.958Z,11.30
2022-10-31T05:34:17.934Z,11.28
2022-10-31T05:35:17.920Z,11.31
2022-10-31T05:36:17.908Z,11.30
2022-10-31T05:37:17.883Z,11.28
2022-10-31T05:38:17.910Z,11.28
2022-10-31T05:39:17.873Z,11.27
2022-10-31T05:40:17.871Z,11.28
2022-10-31T05:41:17.842Z,11.27
2022-10-31T05:42:17.849Z,11.24
2022-10-31T05:43:17.820Z,11.24
2022-10-31T05:44:17.831Z,11.26
2022-10-31T05:45:17.811Z,11.24
2022-10-31T05:46:17.804Z,11.26
2022-10-31T05:47:17.791Z,11.24
2022-10-31T05:48:17.771Z,11.23
2022-10-31T05:49:17.772Z,11.24
2022-10-31T05:50:17.762Z,11.21
2022-10-31T05:51:17.732Z,11.20
2022-10-31T05:52:17.720Z,11.21
2022-10-31T05:53:17.715Z,11.21
2022-10-31T05:54:17.716Z,11.21
2022-10-31T05:55:17.720Z,11.23
2022-10-31T05:56:17.674Z,11.21
2022-10-31T05:57:17.683Z,11.20
2022-10-31T05:58:17.661Z,11.21
2022-10-31T05:59:17.656Z,11.19
2022-10-31T06:00:17.663Z,11.20
2022-10-31T06:01:17.692Z,11.19
2022-10-31T06:02:17.605Z,11.17
2022-10-31T06:03:17.645Z,11.19
2022-10-31T06:04:17.654Z,11.17
2022-10-31T06:05:18.564Z,11.19
2022-10-31T06:06:17.586Z,11.19
2022-10-31T06:07:17.562Z,11.20
2022-10-31T06:08:17.565Z,11.21
2022-10-31T06:09:17.545Z,11.23
2022-10-31T06:10:17.546Z,11.24
2022-10-31T06:11:17.517Z,11.24
2022-10-31T06:12:17.520Z,11.26
2022-10-31T06:13:17.524Z,11.26
2022-10-31T06:14:17.488Z,11.24
2022-10-31T06:15:23.279Z,11.24
2022-10-31T06:16:18.496Z,11.23
2022-10-31T06:17:17.454Z,11.26
2022-10-31T06:18:17.468Z,11.27
2022-10-31T06:19:17.446Z,11.27
2022-10-31T06:20:17.438Z,11.27
2022-10-31T06:21:19.118Z,11.27
2022-10-31T06:22:17.427Z,11.26
2022-10-31T06:23:17.397Z,11.24
2022-10-31T06:24:17.388Z,11.24
2022-10-31T06:25:17.381Z,11.27
2022-10-31T06:26:17.470Z,11.26
2022-10-31T06:27:17.377Z,11.28
2022-10-31T06:28:17.348Z,11.27
2022-10-31T06:29:17.330Z,11.27
2022-10-31T06:30:17.339Z,11.28
2022-10-31T06:31:17.298Z,11.28
2022-10-31T06:32:17.289Z,11.31
2022-10-31T06:33:17.269Z,11.33
2022-10-31T06:34:17.299Z,11.33
2022-10-31T06:35:17.254Z,11.31
2022-10-31T06:36:17.307Z,11.33
2022-10-31T06:37:17.239Z,11.33
2022-10-31T06:38:17.247Z,11.35
2022-10-31T06:39:17.209Z,11.35
2022-10-31T06:40:17.209Z,11.39
2022-10-31T06:41:17.191Z,11.39
2022-10-31T06:42:17.189Z,11.39
2022-10-31T06:43:17.200Z,11.38
2022-10-31T06:44:17.159Z,11.39
2022-10-31T06:45:17.153Z,11.39
2022-10-31T06:46:17.158Z,11.39
2022-10-31T06:47:17.132Z,11.41
2022-10-31T06:48:18.410Z,11.41
2022-10-31T06:49:17.121Z,11.41
2022-10-31T06:50:17.123Z,11.45
2022-10-31T06:51:17.091Z,11.46
2022-10-31T06:52:17.092Z,11.46
2022-10-31T06:53:17.072Z,11.48
2022-10-31T06:54:17.070Z,11.53
2022-10-31T06:55:17.049Z,11.54
2022-10-31T06:56:17.042Z,11.54
2022-10-31T06:57:17.032Z,11.56
2022-10-31T06:58:17.034Z,11.56
2022-10-31T06:59:17.054Z,11.57
2022-10-31T07:00:16.989Z,11.57
2022-10-31T07:01:17.063Z,11.56
2022-10-31T07:02:17.032Z,11.59
2022-10-31T07:03:16.953Z,11.59
2022-10-31T07:04:16.987Z,11.59
2022-10-31T07:05:16.942Z,11.62
2022-10-31T07:06:16.920Z,11.62
2022-10-31T07:07:16.925Z,11.63
2022-10-31T07:08:16.924Z,11.64
2022-10-31T07:09:16.926Z,11.64
2022-10-31T07:10:16.895Z,11.64
2022-10-31T07:11:16.896Z,11.69
2022-10-31T07:12:16.864Z,11.70
2022-10-31T07:13:16.841Z,11.72
2022-10-31T07:14:16.847Z,11.75
2022-10-31T07:15:16.848Z,11.78
2022-10-31T07:16:16.815Z,11.81
2022-10-31T07:17:16.795Z,11.82
2022-10-31T07:18:16.813Z,11.82
2022-10-31T07:19:16.775Z,11.85
2022-10-31T07:20:16.806Z,11.85
2022-10-31T07:21:16.773Z,11.88
2022-10-31T07:22:16.746Z,11.94
2022-10-31T07:23:16.746Z,11.96
2022-10-31T07:24:16.738Z,11.98
2022-10-31T07:25:16.739Z,11.98
2022-10-31T07:26:16.706Z,12.00
2022-10-31T07:27:16.728Z,12.03
2022-10-31T07:28:16.710Z,12.04
2022-10-31T07:29:16.668Z,12.05
2022-10-31T07:30:16.681Z,12.07
2022-10-31T07:31:16.667Z,12.08
2022-10-31T07:32:16.673Z,12.11
2022-10-31T07:33:16.649Z,12.12
2022-10-31T07:34:16.648Z,12.15
2022-10-31T07:35:16.613Z,12.16
2022-10-31T07:36:16.598Z,12.18
2022-10-31T07:37:16.600Z,12.19
2022-10-31T07:38:16.579Z,12.22
2022-10-31T07:39:16.569Z,12.23
2022-10-31T07:40:16.570Z,12.26
2022-10-31T07:41:16.544Z,12.29
2022-10-31T07:42:16.542Z,12.29
2022-10-31T07:43:16.536Z,12.30
2022-10-31T07:44:16.512Z,12.34
2022-10-31T07:45:16.501Z,12.36
2022-10-31T07:46:16.491Z,12.36
2022-10-31T07:47:16.479Z,12.38
2022-10-31T07:48:16.497Z,12.41
2022-10-31T07:49:16.451Z,12.43
2022-10-31T07:50:16.455Z,12.44
2022-10-31T07:51:16.436Z,12.46
2022-10-31T07:52:16.447Z,12.48
2022-10-31T07:53:16.443Z,12.51
2022-10-31T07:54:16.425Z,12.54
2022-10-31T07:55:16.404Z,12.55
2022-10-31T07:56:16.412Z,12.56
2022-10-31T07:57:19.197Z,12.59
2022-10-31T07:58:17.375Z,12.62
2022-10-31T07:59:16.346Z,12.63
2022-10-31T08:00:16.355Z,12.66
2022-10-31T08:01:16.335Z,12.69
2022-10-31T08:02:16.341Z,12.71
2022-10-31T08:03:16.306Z,12.73
2022-10-31T08:04:16.305Z,12.74
2022-10-31T08:05:16.293Z,12.77
2022-10-31T08:06:16.303Z,12.80
2022-10-31T08:07:16.298Z,12.81
2022-10-31T08:08:16.254Z,12.84
2022-10-31T08:09:16.235Z,12.87
2022-10-31T08:10:16.248Z,12.89
2022-10-31T08:11:16.244Z,12.89
2022-10-31T08:12:16.226Z,12.94
2022-10-31T08:13:16.210Z,12.95
2022-10-31T08:14:16.242Z,12.98
2022-10-31T08:15:16.177Z,13.01
2022-10-31T08:16:16.179Z,13.04
2022-10-31T08:17:16.167Z,13.06
2022-10-31T08:18:16.145Z,13.10
2022-10-31T08:19:16.158Z,13.12
2022-10-31T08:20:16.128Z,13.13
2022-10-31T08:21:16.131Z,13.17
2022-10-31T08:22:16.118Z,13.19
2022-10-31T08:23:16.097Z,13.22
2022-10-31T08:24:16.097Z,13.25
2022-10-31T08:25:16.068Z,13.28
2022-10-31T08:26:16.077Z,13.28
2022-10-31T08:27:16.085Z,13.31
2022-10-31T08:28:16.049Z,13.35
2022-10-31T08:29:16.030Z,13.38
2022-10-31T08:30:16.987Z,13.41
2022-10-31T08:31:16.011Z,13.43
2022-10-31T08:32:16.023Z,13.46
2022-10-31T08:33:15.998Z,13.48
2022-10-31T08:34:15.981Z,13.50
2022-10-31T08:35:15.968Z,13.54
2022-10-31T08:36:15.971Z,13.57
2022-10-31T08:37:15.929Z,13.59
2022-10-31T08:38:15.946Z,13.63
2022-10-31T08:39:15.910Z,13.66
2022-10-31T08:40:15.931Z,13.66
2022-10-31T08:41:15.901Z,13.69
2022-10-31T08:42:15.883Z,13.72
2022-10-31T08:43:15.886Z,13.73
2022-10-31T08:44:15.871Z,13.75
2022-10-31T08:45:15.872Z,13.79
2022-10-31T08:46:15.851Z,13.79
2022-10-31T08:47:15.832Z,13.83
2022-10-31T08:48:15.829Z,13.84
2022-10-31T08:49:15.831Z,13.86
2022-10-31T08:50:15.815Z,13.90
2022-10-31T08:51:15.782Z,13.93
2022-10-31T08:52:15.782Z,13.94
2022-10-31T08:53:15.784Z,13.98
2022-10-31T08:54:15.770Z,13.99
2022-10-31T08:55:15.743Z,14.02
2022-10-31T08:56:15.731Z,14.05
2022-10-31T08:57:15.722Z,14.06
2022-10-31T08:58:15.841Z,14.09
2022-10-31T08:59:15.693Z,14.11
2022-10-31T09:00:15.693Z,14.16
2022-10-31T09:01:15.758Z,14.17
2022-10-31T09:02:15.757Z,14.20
2022-10-31T09:03:15.645Z,14.24
2022-10-31T09:04:15.644Z,14.24
2022-10-31T09:05:15.625Z,14.27
2022-10-31T09:06:15.858Z,14.30
2022-10-31T09:07:20.745Z,14.34
2022-10-31T09:08:17.306Z,14.35
2022-10-31T09:09:15.604Z,14.39
2022-10-31T09:10:15.595Z,14.42
2022-10-31T09:11:15.576Z,14.45
2022-10-31T09:12:15.566Z,14.48
2022-10-31T09:13:15.556Z,14.52
2022-10-31T09:14:15.561Z,14.53
2022-10-31T09:15:15.526Z,14.57
2022-10-31T09:16:15.596Z,14.57
2022-10-31T09:17:15.507Z,14.61
2022-10-31T09:18:15.511Z,14.64
2022-10-31T09:19:15.494Z,14.69
2022-10-31T09:20:15.469Z,14.72
2022-10-31T09:21:15.478Z,14.75
2022-10-31T09:22:15.479Z,14.80
2022-10-31T09:23:15.437Z,14.83
2022-10-31T09:24:15.421Z,14.90
2022-10-31T09:25:15.418Z,14.94
2022-10-31T09:26:15.419Z,14.95
2022-10-31T09:27:15.417Z,15.00
2022-10-31T09:28:15.409Z,15.03
2022-10-31T09:29:15.387Z,15.07
2022-10-31T09:30:15.392Z,15.11
2022-10-31T09:31:15.341Z,15.12
2022-10-31T09:32:15.357Z,15.15
2022-10-31T09:33:15.330Z,15.19
2022-10-31T09:34:15.338Z,15.22
2022-10-31T09:35:16.577Z,15.23
2022-10-31T09:36:15.293Z,15.28
2022-10-31T09:37:15.281Z,15.33
2022-10-31T09:38:15.272Z,15.34
2022-10-31T09:39:15.282Z,15.37
2022-10-31T09:40:15.278Z,15.40
2022-10-31T09:41:15.542Z,15.43
2022-10-31T09:42:15.233Z,15.46
2022-10-31T09:43:15.233Z,15.49
2022-10-31T09:44:15.243Z,15.53
2022-10-31T09:45:15.193Z,15.53
2022-10-31T09:46:15.203Z,15.56
2022-10-31T09:47:15.187Z,15.58
2022-10-31T09:48:15.165Z,15.60
2022-10-31T09:49:15.242Z,15.64
2022-10-31T09:50:15.155Z,15.67
2022-10-31T09:51:15.164Z,15.71
2022-10-31T09:52:15.139Z,15.74
2022-10-31T09:53:15.112Z,15.77
2022-10-31T09:54:15.114Z,15.81
2022-10-31T09:55:15.107Z,15.84
2022-10-31T09:56:15.094Z,15.88
2022-10-31T09:57:15.066Z,15.91
2022-10-31T09:58:15.056Z,15.95
2022-10-31T09:59:15.036Z,16.01
2022-10-31T10:00:15.033Z,16.04
2022-10-31T10:01:15.185Z,16.08
2022-10-31T10:02:15.072Z,16.13
2022-10-31T10:03:14.996Z,16.16
2022-10-31T10:04:19.831Z,16.18
2022-10-31T10:05:15.988Z,16.22
2022-10-31T10:06:14.993Z,16.26
2022-10-31T10:07:14.957Z,16.29
2022-10-31T10:08:14.968Z,16.32
2022-10-31T10:09:14.982Z,16.34
2022-10-31T10:10:14.950Z,16.40
2022-10-31T10:11:14.929Z,16.44
2022-10-31T10:12:14.919Z,16.50
2022-10-31T10:13:14.909Z,16.52
2022-10-31T10:14:14.889Z,16.54
2022-10-31T10:15:14.899Z,16.50
2022-10-31T10:16:14.884Z,16.50
2022-10-31T10:17:14.859Z,16.47
2022-10-31T10:18:14.860Z,16.45
2022-10-31T10:19:14.846Z,16.50
2022-10-31T10:20:15.015Z,16.54
2022-10-31T10:21:14.822Z,16.60
2022-10-31T10:22:14.801Z,16.65
2022-10-31T10:23:14.801Z,16.69
2022-10-31T10:24:14.792Z,16.77
2022-10-31T10:25:14.760Z,16.84
2022-10-31T10:26:14.741Z,16.90
2022-10-31T10:27:16.838Z,16.99
2022-10-31T10:28:14.782Z,17.05
2022-10-31T10:29:14.722Z,17.10
2022-10-31T10:30:14.711Z,17.17
2022-10-31T10:31:14.719Z,17.24
2022-10-31T10:32:14.719Z,17.30
2022-10-31T10:33:14.703Z,17.35
2022-10-31T10:34:14.673Z,17.38
2022-10-31T10:35:14.671Z,17.43
2022-10-31T10:36:14.644Z,17.49
2022-10-31T10:37:14.644Z,17.51
2022-10-31T10:38:14.644Z,17.53
2022-10-31T10:39:14.629Z,17.58
2022-10-31T10:40:14.604Z,17.62
2022-10-31T10:41:14.592Z,17.68
2022-10-31T10:42:14.596Z,17.74
2022-10-31T10:43:14.586Z,17.76
2022-10-31T10:44:14.556Z,17.80
2022-10-31T10:45:14.546Z,17.83
2022-10-31T10:46:14.550Z,17.91
2022-10-31T10:47:14.538Z,17.92
2022-10-31T10:48:14.526Z,17.96
2022-10-31T10:49:14.561Z,17.99
2022-10-31T10:50:14.508Z,18.02
2022-10-31T10:51:25.647Z,18.05
2022-10-31T10:53:15.476Z,18.10
2022-10-31T10:54:14.441Z,18.14
2022-10-31T10:55:14.462Z,18.16
2022-10-31T10:56:14.433Z,18.19
2022-10-31T10:57:14.429Z,18.23
2022-10-31T10:58:14.399Z,18.26
2022-10-31T10:59:14.411Z,18.28
2022-10-31T11:00:14.420Z,18.28
2022-10-31T11:02:14.381Z,18.31
2022-10-31T11:03:14.371Z,18.32
2022-10-31T11:04:14.351Z,18.34
2022-10-31T11:05:14.369Z,18.36
2022-10-31T11:06:14.321Z,18.38
2022-10-31T11:07:14.332Z,18.36
2022-10-31T11:08:14.299Z,18.38
2022-10-31T11:09:14.285Z,18.38
2022-10-31T11:10:14.272Z,18.41
2022-10-31T11:11:14.296Z,18.42
2022-10-31T11:12:14.263Z,18.47
2022-10-31T11:13:14.244Z,18.50
2022-10-31T11:14:14.232Z,18.56
2022-10-31T11:15:14.234Z,18.57
2022-10-31T11:16:14.205Z,18.64
2022-10-31T11:17:14.213Z,18.68
2022-10-31T11:18:14.247Z,18.72
2022-10-31T11:19:14.174Z,18.75
2022-10-31T11:20:17.887Z,18.78
2022-10-31T11:21:15.195Z,18.83
2022-10-31T11:22:14.154Z,18.87
2022-10-31T11:23:14.148Z,18.93
2022-10-31T11:24:14.125Z,19.02
2022-10-31T11:25:14.116Z,19.10
2022-10-31T11:26:14.127Z,19.16
2022-10-31T11:27:14.126Z,19.27
2022-10-31T11:28:14.086Z,19.39
2022-10-31T11:29:14.096Z,19.49
2022-10-31T11:30:14.047Z,19.60
2022-10-31T11:31:14.081Z,19.67
2022-10-31T11:32:14.027Z,19.75
2022-10-31T11:33:14.019Z,19.82
2022-10-31T11:34:14.010Z,19.94
2022-10-31T11:35:14.018Z,20.02
2022-10-31T11:36:13.996Z,20.04
2022-10-31T11:37:13.995Z,20.08
2022-10-31T11:38:13.958Z,20.13
2022-10-31T11:39:13.988Z,20.15
2022-10-31T11:40:13.954Z,20.08
2022-10-31T11:41:13.951Z,20.19
2022-10-31T11:42:13.957Z,20.25
2022-10-31T11:43:13.922Z,20.40
2022-10-31T11:44:13.939Z,20.63
2022-10-31T11:45:13.910Z,20.88
2022-10-31T11:46:13.890Z,21.12
2022-10-31T11:47:13.919Z,21.42
2022-10-31T11:48:13.873Z,21.74
2022-10-31T11:49:13.861Z,22.05
2022-10-31T11:50:13.852Z,22.24
2022-10-31T11:51:13.864Z,22.33
2022-10-31T11:52:13.811Z,22.38
2022-10-31T11:53:13.813Z,22.38
2022-10-31T11:54:13.813Z,22.38
2022-10-31T11:55:13.814Z,22.44
2022-10-31T11:56:13.785Z,22.38
2022-10-31T11:57:13.773Z,22.36
2022-10-31T11:58:13.755Z,22.35
2022-10-31T11:59:13.745Z,22.36
2022-10-31T12:00:13.746Z,22.38
2022-10-31T12:01:13.780Z,22.38
2022-10-31T12:02:13.756Z,22.39
2022-10-31T12:03:13.717Z,22.48
2022-10-31T12:04:13.696Z,22.59
2022-10-31T12:05:13.677Z,22.64
2022-10-31T12:06:13.681Z,22.64
2022-10-31T12:07:13.674Z,22.54
2022-10-31T12:08:13.658Z,22.39
2022-10-31T12:09:13.650Z,22.30
2022-10-31T12:10:13.629Z,22.23
2022-10-31T12:11:13.614Z,22.20
2022-10-31T12:12:13.630Z,22.27
2022-10-31T12:13:13.621Z,22.33
2022-10-31T12:14:13.579Z,22.27
2022-10-31T12:15:13.580Z,22.23
2022-10-31T12:16:13.575Z,22.19
2022-10-31T12:17:13.571Z,22.17
2022-10-31T12:18:13.562Z,22.27
2022-10-31T12:19:13.531Z,22.39
2022-10-31T12:20:13.522Z,22.64
2022-10-31T12:21:13.559Z,22.97
2022-10-31T12:22:13.491Z,23.29
2022-10-31T12:23:13.483Z,23.54
2022-10-31T12:24:13.493Z,23.82
2022-10-31T12:25:13.472Z,24.11
2022-10-31T12:26:13.462Z,24.46
2022-10-31T12:27:13.503Z,24.84
2022-10-31T12:28:13.421Z,25.04
2022-10-31T12:29:13.455Z,25.29
2022-10-31T12:30:13.397Z,25.46
2022-10-31T12:31:13.424Z,25.69
2022-10-31T12:32:13.417Z,26.00
2022-10-31T12:33:13.373Z,26.39
2022-10-31T12:34:13.376Z,26.83
2022-10-31T12:35:13.369Z,27.01
2022-10-31T12:36:15.419Z,27.06
2022-10-31T12:37:13.359Z,26.84
2022-10-31T12:38:13.317Z,26.49
2022-10-31T12:39:13.316Z,26.04
2022-10-31T12:40:13.308Z,25.59
2022-10-31T12:41:13.307Z,25.17
2022-10-31T12:42:13.273Z,24.83
2022-10-31T12:43:13.267Z,24.45
2022-10-31T12:44:13.282Z,24.15
2022-10-31T12:45:13.251Z,23.89
2022-10-31T12:46:13.243Z,23.64
2022-10-31T12:47:13.272Z,23.44
2022-10-31T12:48:13.211Z,23.19
2022-10-31T12:49:13.212Z,22.99
2022-10-31T12:50:13.279Z,22.84
2022-10-31T12:51:13.196Z,22.67
2022-10-31T12:52:13.188Z,22.52
2022-10-31T12:53:13.280Z,22.38
2022-10-31T12:54:13.173Z,22.26
2022-10-31T12:55:13.144Z,22.17
2022-10-31T12:56:13.163Z,22.05
2022-10-31T12:57:13.126Z,21.96
2022-10-31T12:58:13.107Z,21.89
2022-10-31T12:59:13.136Z,21.82
2022-10-31T13:00:13.159Z,21.74
2022-10-31T13:01:13.179Z,21.67
2022-10-31T13:02:13.213Z,21.61